Time;durP1;ratioP1;P1;durP2;ratioP2;P2;SDS_P1;SDS_P2;PMS_P1;PMS_P2;Temp;Humidity;BMP_temperature;BMP_pressure;BME280_temperature;BME280_humidity;BME280_pressure;Samples;Min_cycle;Max_cycle;Signal;HPM_P1;HPM_P2
2022/12/11 00:00:18;;;;;;;17.45;10.90;;;2.40;96.70;;;;;;5028126;28;20045;-69
2022/12/11 00:02:43;;;;;;;22.30;11.95;;;2.40;96.80;;;;;;5031364;28;20033;-69
2022/12/11 00:05:09;;;;;;;17.38;10.32;;;2.30;96.70;;;;;;5024610;28;20048;-69
2022/12/11 00:07:35;;;;;;;16.20;10.95;;;2.30;96.70;;;;;;5018636;28;20072;-69
2022/12/11 00:10:01;;;;;;;17.35;10.68;;;2.30;96.70;;;;;;5030165;28;20377;-69
2022/12/11 00:12:29;;;;;;;18.00;10.70;;;2.30;96.80;;;;;;5046491;28;20017;-70
2022/12/11 00:14:54;;;;;;;17.17;10.80;;;2.30;96.70;;;;;;5029158;28;20492;-69
2022/12/11 00:17:20;;;;;;;19.27;10.90;;;2.30;96.70;;;;;;5031825;28;20029;-69
2022/12/11 00:19:45;;;;;;;18.08;11.27;;;2.40;96.80;;;;;;5029793;28;20033;-69
2022/12/11 00:22:11;;;;;;;18.70;11.30;;;2.40;96.70;;;;;;5031572;28;20108;-69
2022/12/11 00:24:37;;;;;;;19.75;11.57;;;2.50;96.80;;;;;;5028972;28;20362;-69
2022/12/11 00:27:02;;;;;;;17.33;11.45;;;2.50;96.70;;;;;;5029546;28;20061;-69
2022/12/11 00:29:28;;;;;;;20.77;11.05;;;2.50;96.90;;;;;;5030417;28;20483;-69
2022/12/11 00:31:53;;;;;;;19.35;11.00;;;2.50;96.70;;;;;;5030587;28;20041;-69
2022/12/11 00:34:19;;;;;;;18.30;10.95;;;2.50;96.60;;;;;;5045558;28;20018;-70
2022/12/11 00:36:45;;;;;;;18.02;10.82;;;2.50;96.60;;;;;;5021421;28;20029;-69
2022/12/11 00:39:10;;;;;;;15.60;10.20;;;2.50;96.60;;;;;;5025733;28;20029;-69
2022/12/11 00:41:36;;;;;;;22.13;10.57;;;2.50;96.60;;;;;;5029759;28;20124;-69
2022/12/11 00:44:03;;;;;;;15.98;10.45;;;2.50;96.60;;;;;;5030497;28;20117;-70
2022/12/11 00:46:28;;;;;;;17.30;11.13;;;2.50;96.60;;;;;;5030325;28;20030;-70
2022/12/11 00:48:54;;;;;;;17.77;10.07;;;2.50;96.80;;;;;;5030049;28;20033;-70
2022/12/11 00:51:20;;;;;;;16.42;11.15;;;2.60;96.60;;;;;;5028979;28;20435;-70
2022/12/11 00:53:45;;;;;;;23.08;12.77;;;2.60;96.60;;;;;;5033551;28;20029;-70
2022/12/11 00:56:15;;;;;;;20.67;11.80;;;2.60;96.60;;;;;;5031010;28;20063;-70
2022/12/11 00:58:40;;;;;;;17.75;11.20;;;2.60;96.60;;;;;;5030515;28;20528;-70
2022/12/11 01:01:20;;;;;;;18.80;10.90;;;2.60;96.50;;;;;;5030240;28;20136;-70
2022/12/11 01:03:48;;;;;;;17.67;11.18;;;2.60;96.40;;;;;;5026638;28;20057;-70
2022/12/11 01:06:15;;;;;;;17.80;11.43;;;2.60;96.50;;;;;;5018863;28;20546;-70
2022/12/11 01:08:42;;;;;;;20.45;11.48;;;2.60;96.40;;;;;;5029721;28;20040;-70
2022/12/11 01:11:11;;;;;;;16.85;11.30;;;2.60;96.30;;;;;;5032654;28;20095;-70
2022/12/11 01:13:38;;;;;;;15.27;10.18;;;2.50;96.40;;;;;;5032670;28;20132;-70
2022/12/11 01:16:12;;;;;;;16.80;10.35;;;2.50;96.30;;;;;;5035401;28;20030;-71
2022/12/11 01:18:39;;;;;;;18.77;10.35;;;2.60;96.40;;;;;;5032920;28;20308;-71
2022/12/11 01:21:10;;;;;;;18.58;11.13;;;2.50;96.30;;;;;;5034999;28;20448;-70
2022/12/11 01:23:36;;;;;;;17.13;10.80;;;2.50;96.30;;;;;;5028288;28;20100;-70
2022/12/11 01:26:12;;;;;;;19.35;11.40;;;2.40;96.20;;;;;;5034854;28;20088;-70
2022/12/11 01:28:38;;;;;;;16.50;10.52;;;2.50;96.30;;;;;;5033264;28;20069;-70
2022/12/11 01:31:11;;;;;;;21.65;12.45;;;2.40;96.30;;;;;;5034706;28;20485;-70
2022/12/11 01:33:38;;;;;;;22.65;12.10;;;2.40;96.30;;;;;;5032277;28;20025;-70
2022/12/11 01:36:08;;;;;;;21.38;12.77;;;2.50;96.30;;;;;;5034219;28;20525;-70
2022/12/11 01:38:34;;;;;;;20.55;12.10;;;2.40;96.20;;;;;;5033288;28;20072;-70
2022/12/11 01:40:59;;;;;;;19.83;11.10;;;2.40;96.20;;;;;;5034530;28;20033;-70
2022/12/11 01:43:25;;;;;;;20.20;11.50;;;2.40;96.20;;;;;;5032802;28;20029;-70
2022/12/11 01:45:51;;;;;;;19.42;11.43;;;2.40;96.10;;;;;;5035012;28;20067;-70
2022/12/11 01:48:24;;;;;;;18.15;10.13;;;2.30;96.10;;;;;;5034232;28;20017;-70
2022/12/11 01:50:53;;;;;;;20.75;10.95;;;2.30;96.10;;;;;;5031808;28;20037;-70
2022/12/11 01:53:23;;;;;;;17.95;10.68;;;2.30;96.00;;;;;;5033625;28;20036;-70
2022/12/11 01:55:52;;;;;;;19.77;11.57;;;2.30;96.00;;;;;;5033252;28;20033;-70
2022/12/11 01:58:21;;;;;;;16.13;10.25;;;2.30;96.10;;;;;;5034034;28;20030;-70
2022/12/11 02:00:47;;;;;;;15.98;10.82;;;2.30;96.10;;;;;;5032505;28;20112;-70
2022/12/11 02:03:13;;;;;;;17.52;10.63;;;2.30;96.10;;;;;;5031620;28;20598;-71
2022/12/11 02:05:39;;;;;;;17.33;10.20;;;2.20;96.10;;;;;;5032038;28;20507;-71
2022/12/11 02:08:07;;;;;;;16.27;10.30;;;2.30;96.10;;;;;;5034654;28;20499;-71
2022/12/11 02:10:43;;;;;;;18.58;10.35;;;2.30;96.10;;;;;;5032579;28;20037;-70
2022/12/11 02:13:28;;;;;;;17.25;10.60;;;2.20;96.10;;;;;;5033949;28;20025;-70
2022/12/11 02:16:17;;;;;;;17.92;10.05;;;2.20;96.20;;;;;;5032020;28;20033;-69
2022/12/11 02:19:41;;;;;;;19.63;11.18;;;2.30;96.20;;;;;;5032050;28;20029;-70
2022/12/11 02:22:14;;;;;;;16.90;10.75;;;2.20;96.20;;;;;;4971336;28;20521;-70
2022/12/11 02:24:54;;;;;;;16.33;10.00;;;2.30;96.20;;;;;;4989221;28;20038;-68
2022/12/11 02:27:34;;;;;;;18.48;10.68;;;2.30;96.20;;;;;;5014444;28;20041;-69
2022/12/11 02:30:10;;;;;;;19.58;10.70;;;2.30;96.30;;;;;;5032395;28;20044;-69
2022/12/11 02:32:55;;;;;;;17.98;11.18;;;2.30;96.30;;;;;;5033339;28;20076;-69
2022/12/11 02:35:34;;;;;;;19.08;10.25;;;2.30;96.30;;;;;;5031799;28;20057;-69
2022/12/11 02:38:06;;;;;;;19.90;11.43;;;2.30;96.30;;;;;;5032541;28;20508;-69
2022/12/11 02:40:35;;;;;;;15.38;9.77;;;2.30;96.30;;;;;;5032814;28;20076;-69
2022/12/11 02:43:12;;;;;;;18.73;10.63;;;2.20;96.00;;;;;;5031516;28;20033;-69
2022/12/11 02:45:40;;;;;;;17.58;10.88;;;2.20;95.90;;;;;;5046920;28;20041;-70
2022/12/11 02:48:09;;;;;;;18.48;11.57;;;2.10;95.90;;;;;;5033807;28;20088;-69
2022/12/11 02:50:40;;;;;;;19.88;10.48;;;2.10;96.00;;;;;;5031599;28;20098;-69
2022/12/11 02:53:09;;;;;;;15.88;10.23;;;2.00;96.00;;;;;;5032591;28;20480;-69
2022/12/11 02:55:36;;;;;;;18.15;10.23;;;2.00;96.10;;;;;;5031684;28;20548;-69
2022/12/11 02:58:06;;;;;;;21.83;12.30;;;2.00;96.10;;;;;;5033068;28;20076;-69
2022/12/11 03:00:33;;;;;;;20.90;13.43;;;2.00;96.20;;;;;;5031377;28;20061;-69
2022/12/11 03:02:59;;;;;;;22.45;11.70;;;2.00;96.20;;;;;;5037577;28;20030;-69
2022/12/11 03:05:26;;;;;;;19.73;10.98;;;2.00;96.20;;;;;;5028937;28;20040;-68
2022/12/11 03:07:52;;;;;;;19.48;12.48;;;2.00;96.20;;;;;;5033039;28;20196;-69
2022/12/11 03:10:18;;;;;;;19.60;11.30;;;2.00;96.10;;;;;;5030210;28;20033;-68
2022/12/11 03:12:48;;;;;;;18.65;10.57;;;1.90;96.10;;;;;;5046866;28;20033;-68
2022/12/11 03:15:17;;;;;;;22.15;12.38;;;1.90;96.20;;;;;;5032236;28;20056;-68
2022/12/11 03:18:04;;;;;;;20.83;11.32;;;1.90;96.20;;;;;;5031044;28;20040;-68
2022/12/11 03:20:46;;;;;;;19.45;11.18;;;1.90;96.30;;;;;;5031672;28;20228;-68
2022/12/11 03:23:19;;;;;;;17.85;10.35;;;1.90;96.30;;;;;;5031035;28;20045;-68
2022/12/11 03:25:57;;;;;;;18.80;10.55;;;1.90;96.30;;;;;;5032135;28;20076;-68
2022/12/11 03:28:31;;;;;;;20.10;11.57;;;1.90;96.30;;;;;;5030775;28;20120;-68
2022/12/11 03:31:01;;;;;;;20.93;10.30;;;1.90;96.30;;;;;;5027018;28;20037;-68
2022/12/11 03:33:34;;;;;;;18.63;11.40;;;1.90;96.40;;;;;;5029661;28;20386;-68
2022/12/11 03:36:11;;;;;;;15.95;10.15;;;1.90;96.40;;;;;;5031810;28;20052;-68
2022/12/11 03:38:45;;;;;;;21.48;11.77;;;1.90;96.40;;;;;;5012850;28;20037;-68
2022/12/11 03:41:12;;;;;;;22.13;12.68;;;1.90;96.70;;;;;;5029460;28;20033;-68
2022/12/11 03:43:39;;;;;;;22.67;12.15;;;1.80;96.50;;;;;;5032584;28;20083;-68
2022/12/11 03:46:08;;;;;;;18.77;11.63;;;1.90;96.60;;;;;;5030442;28;20033;-69
2022/12/11 03:48:36;;;;;;;18.33;10.93;;;1.80;96.50;;;;;;5026176;28;20266;-68
2022/12/11 03:51:05;;;;;;;19.08;11.13;;;1.80;96.50;;;;;;5030483;28;20052;-68
2022/12/11 03:53:33;;;;;;;19.90;11.95;;;1.80;96.50;;;;;;5031405;28;20362;-69
2022/12/11 03:56:00;;;;;;;15.45;10.63;;;1.80;96.60;;;;;;5030823;28;20116;-69
2022/12/11 03:58:26;;;;;;;20.48;11.68;;;1.80;96.50;;;;;;5030973;28;20214;-68
2022/12/11 04:00:51;;;;;;;16.92;10.77;;;1.80;96.50;;;;;;5030764;28;20192;-68
2022/12/11 04:03:17;;;;;;;17.85;10.05;;;1.80;96.60;;;;;;5030841;28;20515;-68
2022/12/11 04:05:46;;;;;;;15.88;9.77;;;1.80;96.60;;;;;;5029719;28;20063;-68
2022/12/11 04:08:11;;;;;;;18.95;11.15;;;1.90;96.60;;;;;;5031693;28;20029;-69
2022/12/11 04:10:38;;;;;;;19.23;11.32;;;1.80;96.50;;;;;;5029348;28;20507;-68
2022/12/11 04:13:03;;;;;;;19.48;11.20;;;1.80;96.50;;;;;;5031358;28;20120;-68
2022/12/11 04:15:29;;;;;;;23.33;10.77;;;1.80;96.60;;;;;;5030999;28;20627;-68
2022/12/11 04:26:09;;;;;;;19.80;10.85;;;2.00;96.70;;;;;;5029299;28;20036;-69
2022/12/11 04:28:36;;;;;;;18.88;11.35;;;2.10;96.70;;;;;;5031908;28;20033;-69
2022/12/11 04:31:02;;;;;;;20.85;10.77;;;2.10;96.70;;;;;;5028184;28;20076;-69
2022/12/11 04:33:28;;;;;;;25.83;10.93;;;2.10;96.70;;;;;;5031200;28;20032;-68
2022/12/11 04:35:57;;;;;;;19.83;11.52;;;2.10;96.60;;;;;;5030127;28;20464;-68
2022/12/11 04:38:23;;;;;;;18.92;11.25;;;2.10;96.70;;;;;;5030160;28;20460;-69
2022/12/11 04:40:48;;;;;;;19.42;11.32;;;2.10;96.70;;;;;;5029861;28;20040;-69
2022/12/11 04:43:14;;;;;;;19.17;11.75;;;2.20;96.80;;;;;;5036982;28;20045;-70
2022/12/11 04:45:40;;;;;;;17.33;10.52;;;2.20;96.80;;;;;;5032597;28;20029;-69
2022/12/11 04:48:05;;;;;;;21.67;11.55;;;2.30;96.80;;;;;;5035141;28;20102;-69
2022/12/11 04:50:31;;;;;;;19.20;10.73;;;2.20;96.70;;;;;;5034575;28;20472;-69
2022/12/11 04:52:57;;;;;;;16.95;11.27;;;2.20;96.70;;;;;;5033317;28;20036;-68
2022/12/11 04:55:23;;;;;;;17.60;11.05;;;2.20;96.80;;;;;;5033797;28;20026;-68
2022/12/11 04:57:48;;;;;;;19.05;10.82;;;2.20;96.80;;;;;;5032415;28;20248;-69
2022/12/11 05:00:16;;;;;;;20.58;11.55;;;2.20;96.90;;;;;;5033965;28;20397;-69
2022/12/11 05:02:42;;;;;;;21.95;12.25;;;2.20;96.80;;;;;;5034516;28;20044;-68
2022/12/11 05:05:09;;;;;;;21.55;12.45;;;2.20;96.80;;;;;;5033994;28;20022;-69
2022/12/11 05:07:36;;;;;;;19.45;12.20;;;2.20;96.80;;;;;;5029908;28;20057;-68
2022/12/11 05:10:02;;;;;;;20.90;10.98;;;2.20;96.80;;;;;;5033722;28;20026;-69
2022/12/11 05:12:28;;;;;;;19.40;11.50;;;2.20;96.80;;;;;;5034105;28;20034;-69
2022/12/11 05:14:54;;;;;;;19.48;11.85;;;2.10;96.90;;;;;;5018937;28;20030;-69
2022/12/11 05:17:21;;;;;;;19.30;11.85;;;2.00;96.90;;;;;;5034939;28;20083;-69
2022/12/11 05:19:50;;;;;;;23.17;13.65;;;2.10;96.90;;;;;;5033404;28;20453;-69
2022/12/11 05:22:17;;;;;;;20.95;11.35;;;2.00;96.80;;;;;;5033955;28;20451;-69
2022/12/11 05:24:43;;;;;;;18.35;11.30;;;2.00;97.00;;;;;;5032276;28;20051;-69
2022/12/11 05:27:09;;;;;;;20.05;12.05;;;2.00;96.80;;;;;;5033993;28;20025;-69
2022/12/11 05:29:35;;;;;;;21.88;12.18;;;2.00;96.90;;;;;;5033666;28;20472;-69
2022/12/11 05:32:01;;;;;;;20.42;11.18;;;2.10;97.00;;;;;;5034001;28;20083;-69
2022/12/11 05:34:27;;;;;;;21.88;12.27;;;2.00;97.00;;;;;;5033246;28;20106;-69
2022/12/11 05:36:52;;;;;;;22.45;12.82;;;1.90;97.00;;;;;;5033656;28;20026;-69
2022/12/11 05:39:18;;;;;;;17.48;11.75;;;1.90;97.10;;;;;;5029326;28;20025;-69
2022/12/11 05:41:44;;;;;;;22.80;12.82;;;1.80;97.10;;;;;;5030521;28;20040;-69
2022/12/11 05:44:11;;;;;;;21.60;12.48;;;1.80;97.10;;;;;;5033714;28;20370;-69
2022/12/11 05:46:37;;;;;;;20.50;11.80;;;1.80;97.10;;;;;;5032305;28;20103;-69
2022/12/11 05:49:03;;;;;;;19.60;11.80;;;1.80;97.10;;;;;;5033325;28;20493;-69
2022/12/11 05:51:30;;;;;;;21.15;11.68;;;1.80;97.10;;;;;;5031438;28;20377;-69
2022/12/11 05:53:56;;;;;;;20.00;12.40;;;1.80;97.30;;;;;;5033508;28;20108;-69
2022/12/11 05:56:33;;;;;;;22.38;12.85;;;1.70;97.10;;;;;;5031357;28;20037;-68
2022/12/11 05:59:00;;;;;;;19.60;12.68;;;1.70;97.10;;;;;;5033134;28;20477;-69
2022/12/11 06:01:34;;;;;;;20.80;12.60;;;1.60;97.20;;;;;;5030877;28;20055;-69
2022/12/11 06:04:01;;;;;;;21.77;12.85;;;1.70;97.20;;;;;;5033718;28;20496;-69
2022/12/11 06:06:27;;;;;;;22.92;12.10;;;1.60;97.10;;;;;;5032614;28;20029;-70
2022/12/11 06:08:54;;;;;;;23.63;12.23;;;1.60;97.20;;;;;;5033237;28;20032;-68
2022/12/11 06:11:21;;;;;;;20.42;11.90;;;1.50;97.10;;;;;;5032292;28;20041;-68
2022/12/11 06:13:47;;;;;;;27.90;12.90;;;1.50;97.10;;;;;;5027125;28;20033;-68
2022/12/11 06:16:13;;;;;;;19.70;11.48;;;1.50;97.10;;;;;;5030179;28;20421;-68
2022/12/11 06:18:42;;;;;;;20.42;10.82;;;1.40;97.00;;;;;;5033445;28;20021;-68
2022/12/11 06:21:33;;;;;;;17.73;10.82;;;1.30;97.10;;;;;;5032499;28;20034;-68
2022/12/11 06:24:02;;;;;;;17.48;10.13;;;1.10;97.10;;;;;;5023939;28;20040;-67
2022/12/11 06:26:28;;;;;;;22.67;11.43;;;1.10;97.20;;;;;;5032682;28;20053;-67
2022/12/11 06:28:53;;;;;;;20.52;11.40;;;1.10;97.30;;;;;;5031594;28;20084;-68
2022/12/11 06:31:20;;;;;;;22.15;11.90;;;1.00;97.30;;;;;;5017929;28;20034;-67
2022/12/11 06:33:46;;;;;;;18.58;10.38;;;1.00;97.50;;;;;;5025196;28;20392;-68
2022/12/11 06:36:17;;;;;;;19.15;11.23;;;1.00;97.50;;;;;;5032619;28;20035;-68
2022/12/11 06:38:43;;;;;;;16.75;11.20;;;0.90;97.50;;;;;;5048400;28;20025;-68
2022/12/11 06:41:10;;;;;;;19.10;10.75;;;1.00;97.50;;;;;;5032027;28;20029;-68
2022/12/11 06:43:37;;;;;;;18.75;11.88;;;1.00;97.40;;;;;;5030886;28;20136;-68
2022/12/11 06:46:14;;;;;;;20.27;11.18;;;0.90;97.60;;;;;;5032419;28;20080;-67
2022/12/11 06:48:41;;;;;;;18.90;10.73;;;0.90;97.50;;;;;;5032299;28;20116;-67
2022/12/11 06:51:09;;;;;;;17.60;10.60;;;0.90;97.50;;;;;;5032005;28;20041;-67
2022/12/11 06:53:34;;;;;;;16.77;10.70;;;0.90;97.50;;;;;;5031391;28;20022;-68
2022/12/11 06:56:05;;;;;;;15.75;9.80;;;0.90;97.40;;;;;;5031271;28;20436;-68
2022/12/11 06:58:33;;;;;;;18.00;10.25;;;0.90;97.40;;;;;;5032479;28;20029;-68
2022/12/11 07:00:59;;;;;;;17.05;10.00;;;0.90;97.40;;;;;;5026372;28;20053;-68
2022/12/11 07:03:24;;;;;;;16.98;10.80;;;0.80;97.30;;;;;;5032490;28;20290;-69
2022/12/11 07:05:50;;;;;;;19.30;11.90;;;0.80;97.30;;;;;;5046229;28;20555;-68
2022/12/11 07:08:15;;;;;;;18.20;10.32;;;0.80;97.30;;;;;;5033036;28;20021;-68
2022/12/11 07:10:41;;;;;;;18.02;9.95;;;0.80;97.40;;;;;;5031645;28;20064;-68
2022/12/11 07:13:07;;;;;;;16.98;9.88;;;0.80;97.30;;;;;;5032261;28;20116;-68
2022/12/11 07:15:32;;;;;;;16.83;10.43;;;0.80;97.40;;;;;;5031746;28;20036;-68
2022/12/11 07:17:58;;;;;;;17.05;9.50;;;0.80;97.40;;;;;;5031068;28;20036;-68
2022/12/11 07:20:23;;;;;;;20.10;10.25;;;0.80;97.30;;;;;;5031520;28;20033;-68
2022/12/11 07:22:49;;;;;;;17.35;9.65;;;0.80;97.10;;;;;;5020124;28;20116;-68
2022/12/11 07:25:15;;;;;;;16.98;10.30;;;0.80;97.10;;;;;;5022124;28;20027;-68
2022/12/11 07:27:41;;;;;;;17.25;9.30;;;0.80;96.90;;;;;;5031335;28;20025;-68
2022/12/11 07:30:07;;;;;;;16.60;9.57;;;0.80;96.80;;;;;;5031129;28;20033;-68
2022/12/11 07:32:33;;;;;;;17.90;9.52;;;0.70;96.60;;;;;;5031779;28;20508;-68
2022/12/11 07:34:59;;;;;;;13.35;8.63;;;0.70;96.60;;;;;;5031334;28;20062;-69
2022/12/11 07:37:24;;;;;;;15.85;9.07;;;0.70;96.70;;;;;;5031122;28;20025;-69
2022/12/11 07:39:50;;;;;;;17.83;9.98;;;0.60;96.70;;;;;;5031622;28;20395;-70
2022/12/11 07:42:16;;;;;;;17.02;8.52;;;0.60;96.70;;;;;;5031592;28;20021;-69
2022/12/11 07:44:41;;;;;;;17.33;8.73;;;0.70;96.60;;;;;;5031465;28;20029;-70
2022/12/11 07:47:07;;;;;;;19.65;10.30;;;0.70;96.60;;;;;;5027907;28;20014;-69
2022/12/11 07:49:32;;;;;;;18.80;10.13;;;0.70;96.50;;;;;;5031709;28;20484;-69
2022/12/11 07:51:58;;;;;;;16.92;9.95;;;0.70;96.30;;;;;;5045560;28;20026;-69
2022/12/11 07:54:23;;;;;;;15.98;9.57;;;0.60;96.30;;;;;;5032028;28;20241;-69
2022/12/11 07:56:49;;;;;;;15.43;8.60;;;0.50;96.20;;;;;;5027593;28;20029;-70
2022/12/11 07:59:15;;;;;;;15.90;9.75;;;0.60;96.20;;;;;;5028459;28;20381;-71
2022/12/11 08:01:42;;;;;;;14.13;8.88;;;0.50;96.00;;;;;;5026315;28;20037;-70
2022/12/11 08:04:09;;;;;;;13.57;9.15;;;0.50;96.20;;;;;;5030273;28;20030;-71
2022/12/11 08:06:37;;;;;;;14.02;9.20;;;0.50;95.90;;;;;;5035082;28;20141;-69
2022/12/11 08:09:05;;;;;;;14.95;9.00;;;0.40;96.00;;;;;;5031743;28;20032;-70
2022/12/11 08:11:31;;;;;;;16.05;9.52;;;0.40;96.00;;;;;;5028109;28;20036;-69
2022/12/11 08:13:58;;;;;;;14.43;8.38;;;0.40;96.00;;;;;;5031471;28;20025;-68
2022/12/11 08:16:25;;;;;;;17.00;8.27;;;0.30;96.00;;;;;;5030558;28;20029;-69
2022/12/11 08:18:51;;;;;;;17.35;8.68;;;0.20;95.90;;;;;;5026473;28;20030;-68
2022/12/11 08:21:22;;;;;;;16.67;8.68;;;0.20;96.00;;;;;;5029863;28;20056;-69
2022/12/11 08:23:48;;;;;;;16.58;8.88;;;0.20;96.10;;;;;;5029464;28;20030;-68
2022/12/11 08:26:16;;;;;;;17.70;8.75;;;0.20;96.10;;;;;;5030682;28;20041;-68
2022/12/11 08:28:42;;;;;;;16.08;9.35;;;0.20;96.20;;;;;;5032400;28;20033;-68
2022/12/11 08:31:11;;;;;;;14.68;9.23;;;0.10;96.00;;;;;;5029790;28;20036;-68
2022/12/11 08:33:38;;;;;;;13.90;8.15;;;0.10;96.10;;;;;;5029294;28;20040;-68
2022/12/11 08:36:06;;;;;;;15.05;8.77;;;0.10;96.20;;;;;;5044779;28;20101;-68
2022/12/11 08:38:36;;;;;;;18.63;9.82;;;0.10;96.10;;;;;;5030902;28;20036;-68
2022/12/11 08:41:12;;;;;;;15.52;9.00;;;0.10;96.10;;;;;;5029277;28;20026;-69
2022/12/11 08:43:38;;;;;;;18.77;10.52;;;0.10;96.20;;;;;;5029186;28;20029;-69
2022/12/11 08:46:05;;;;;;;19.23;10.30;;;0.20;96.20;;;;;;5029065;28;20030;-68
2022/12/11 08:48:32;;;;;;;19.33;10.10;;;0.20;96.20;;;;;;5012397;28;20026;-69
2022/12/11 08:51:03;;;;;;;20.42;12.38;;;0.30;96.20;;;;;;5021744;28;20042;-69
2022/12/11 08:53:29;;;;;;;16.20;10.52;;;0.30;96.20;;;;;;5017351;28;20034;-69
2022/12/11 08:56:23;;;;;;;16.35;9.77;;;0.40;96.20;;;;;;5029039;28;20139;-68
2022/12/11 08:58:50;;;;;;;19.33;10.68;;;0.50;96.20;;;;;;5025709;28;20060;-68
2022/12/11 09:01:20;;;;;;;20.35;10.85;;;0.50;96.20;;;;;;5029157;28;20062;-67
2022/12/11 09:03:46;;;;;;;16.48;10.80;;;0.50;96.20;;;;;;5031011;28;20032;-68
2022/12/11 09:06:15;;;;;;;16.67;10.93;;;0.60;96.20;;;;;;5021663;28;20032;-68
2022/12/11 09:08:42;;;;;;;20.90;10.93;;;0.60;96.30;;;;;;5025126;28;20029;-67
2022/12/11 09:11:14;;;;;;;17.02;9.43;;;0.70;96.40;;;;;;5029792;28;20076;-70
2022/12/11 09:13:41;;;;;;;13.25;8.50;;;0.80;96.20;;;;;;5030425;28;20032;-68
2022/12/11 09:16:10;;;;;;;14.20;9.23;;;0.70;96.00;;;;;;5029641;28;20026;-69
2022/12/11 09:18:36;;;;;;;17.38;9.32;;;0.70;96.00;;;;;;5020313;28;20041;-68
2022/12/11 09:21:05;;;;;;;17.10;9.32;;;0.70;96.00;;;;;;5027452;28;20034;-69
2022/12/11 09:23:31;;;;;;;15.88;9.80;;;0.70;96.10;;;;;;5025311;28;20032;-69
2022/12/11 09:25:57;;;;;;;18.15;10.68;;;0.80;96.10;;;;;;5027177;28;20033;-68
2022/12/11 09:28:23;;;;;;;16.90;9.70;;;0.80;96.10;;;;;;5033866;28;20018;-69
2022/12/11 09:30:50;;;;;;;15.18;9.68;;;0.80;96.10;;;;;;5027801;28;20602;-69
2022/12/11 09:33:16;;;;;;;16.25;9.95;;;0.90;96.00;;;;;;5033834;28;20030;-69
2022/12/11 09:35:42;;;;;;;19.33;10.13;;;0.80;96.00;;;;;;5033859;28;20108;-69
2022/12/11 09:38:08;;;;;;;16.85;9.32;;;0.80;96.10;;;;;;5034134;28;20048;-68
2022/12/11 09:40:42;;;;;;;15.95;9.15;;;0.80;96.00;;;;;;5030679;28;20388;-71
2022/12/11 09:43:36;;;;;;;16.88;10.10;;;0.80;96.10;;;;;;5025315;28;20033;-72
2022/12/11 09:46:05;;;;;;;15.00;9.50;;;0.80;96.10;;;;;;5026116;28;20033;-71
2022/12/11 09:48:33;;;;;;;17.40;9.05;;;0.90;96.20;;;;;;5033677;28;20033;-72
2022/12/11 09:51:12;;;;;;;18.55;10.27;;;1.00;96.30;;;;;;5033959;28;20038;-72
2022/12/11 09:53:41;;;;;;;16.95;10.65;;;1.00;96.20;;;;;;5034833;28;20056;-72
2022/12/11 09:56:21;;;;;;;23.73;12.70;;;1.10;96.20;;;;;;5047676;28;20116;-72
2022/12/11 09:59:14;;;;;;;19.95;11.95;;;1.10;96.00;;;;;;5033405;28;20033;-72
2022/12/11 10:01:53;;;;;;;15.80;10.45;;;1.10;96.00;;;;;;5025483;28;20044;-72
2022/12/11 10:04:44;;;;;;;19.90;11.82;;;1.20;96.00;;;;;;5033952;28;20037;-72
2022/12/11 10:07:18;;;;;;;18.40;11.25;;;1.10;95.90;;;;;;5032913;28;20068;-72
2022/12/11 10:09:58;;;;;;;16.23;10.13;;;1.10;96.00;;;;;;5033763;28;20033;-72
2022/12/11 10:12:33;;;;;;;17.10;10.05;;;1.10;96.00;;;;;;5033404;28;20052;-71
2022/12/11 10:15:11;;;;;;;18.75;9.95;;;1.20;96.10;;;;;;5049427;28;20032;-70
2022/12/11 10:17:39;;;;;;;18.35;11.27;;;1.30;96.20;;;;;;5034161;28;20187;-72
2022/12/11 10:20:21;;;;;;;16.77;10.30;;;1.30;96.20;;;;;;5032740;28;20041;-74
2022/12/11 10:22:49;;;;;;;20.08;10.98;;;1.30;96.00;;;;;;5018076;28;20056;-75
2022/12/11 10:25:21;;;;;;;14.82;9.80;;;1.40;96.10;;;;;;5031871;28;20052;-74
2022/12/11 10:27:47;;;;;;;15.10;8.20;;;1.30;96.00;;;;;;5035579;28;20036;-75
2022/12/11 10:30:24;;;;;;;15.93;9.57;;;1.30;95.90;;;;;;5032330;28;20571;-74
2022/12/11 10:33:12;;;;;;;17.67;10.35;;;1.30;96.10;;;;;;5024889;28;20124;-74
2022/12/11 10:35:52;;;;;;;19.30;10.70;;;1.40;96.10;;;;;;5033240;28;20034;-74
2022/12/11 10:38:28;;;;;;;21.30;12.85;;;1.30;96.00;;;;;;5021637;28;20046;-73
2022/12/11 10:40:58;;;;;;;21.35;12.20;;;1.30;95.90;;;;;;5032338;28;20384;-74
2022/12/11 10:43:45;;;;;;;18.85;10.63;;;1.30;96.00;;;;;;5032567;28;20446;-74
2022/12/11 10:46:20;;;;;;;14.60;9.57;;;1.20;95.80;;;;;;5031877;28;20029;-75
2022/12/11 10:48:46;;;;;;;16.42;9.48;;;1.20;96.00;;;;;;5032433;28;20447;-71
2022/12/11 10:51:14;;;;;;;16.05;9.45;;;1.20;96.10;;;;;;5026050;28;20551;-72
2022/12/11 10:53:42;;;;;;;17.77;9.98;;;1.30;96.20;;;;;;5013574;28;20102;-72
2022/12/11 10:56:08;;;;;;;19.35;10.35;;;1.40;96.20;;;;;;5026868;28;20410;-72
2022/12/11 10:58:45;;;;;;;18.45;10.85;;;1.40;96.10;;;;;;5047986;28;20025;-72
2022/12/11 11:01:15;;;;;;;16.05;9.55;;;1.40;96.10;;;;;;5031968;28;20513;-71
2022/12/11 11:04:23;;;;;;;12.60;8.82;;;1.40;96.10;;;;;;5031637;28;20355;-71
2022/12/11 11:07:22;;;;;;;14.50;9.00;;;1.50;96.10;;;;;;4993726;28;20029;-71
2022/12/11 11:09:53;;;;;;;16.73;10.13;;;1.50;96.00;;;;;;5014744;28;20455;-71
2022/12/11 11:12:26;;;;;;;16.05;10.07;;;1.40;96.10;;;;;;5031750;28;20570;-71
2022/12/11 11:15:22;;;;;;;16.38;9.48;;;1.40;96.20;;;;;;5031747;28;20448;-72
2022/12/11 11:17:51;;;;;;;17.13;9.02;;;1.50;96.30;;;;;;5031027;28;20037;-73
2022/12/11 11:20:20;;;;;;;16.00;9.90;;;1.40;96.40;;;;;;5045127;28;20042;-72
2022/12/11 11:22:51;;;;;;;14.35;8.98;;;1.50;96.40;;;;;;5029243;28;20120;-72
2022/12/11 11:25:31;;;;;;;14.13;8.95;;;1.50;96.40;;;;;;5032092;28;20376;-72
2022/12/11 11:27:59;;;;;;;16.27;9.45;;;1.50;96.30;;;;;;5047710;28;20033;-72
2022/12/11 11:30:29;;;;;;;15.73;9.60;;;1.50;96.30;;;;;;5033131;28;20434;-71
2022/12/11 11:33:04;;;;;;;15.73;9.77;;;1.60;96.20;;;;;;5046527;28;20042;-71
2022/12/11 11:35:31;;;;;;;15.50;10.43;;;1.60;96.20;;;;;;5035529;28;20541;-71
2022/12/11 11:38:03;;;;;;;22.92;11.82;;;1.50;95.90;;;;;;5025483;28;20504;-71
2022/12/11 11:40:35;;;;;;;16.60;10.82;;;1.50;96.50;;;;;;5031030;28;20510;-72
2022/12/11 11:43:19;;;;;;;18.52;10.90;;;1.70;96.70;;;;;;5019844;28;20113;-71
2022/12/11 11:45:58;;;;;;;16.00;10.30;;;1.70;96.50;;;;;;5031063;28;20536;-72
2022/12/11 11:48:47;;;;;;;19.90;11.27;;;1.70;96.30;;;;;;5032022;28;20123;-71
2022/12/11 11:51:28;;;;;;;19.08;9.55;;;1.70;96.60;;;;;;5034459;28;20532;-75
2022/12/11 11:53:59;;;;;;;19.73;11.85;;;1.70;96.60;;;;;;5032175;28;20097;-75
2022/12/11 11:56:30;;;;;;;17.23;10.35;;;1.70;96.70;;;;;;5031237;28;20043;-73
2022/12/11 11:59:40;;;;;;;16.92;9.70;;;1.70;96.80;;;;;;5032261;28;20025;-73
2022/12/11 12:02:14;;;;;;;18.60;9.45;;;1.70;96.80;;;;;;4973601;28;20057;-76
2022/12/11 12:04:41;;;;;;;18.73;10.93;;;1.80;96.90;;;;;;4977582;28;20386;-74
2022/12/11 12:07:35;;;;;;;17.15;10.18;;;1.80;96.80;;;;;;5002515;28;20041;-74
2022/12/11 12:10:13;;;;;;;18.02;10.52;;;1.90;96.70;;;;;;5025070;28;20029;-75
2022/12/11 12:13:01;;;;;;;18.13;10.32;;;1.90;96.60;;;;;;5018382;28;20037;-74
2022/12/11 12:15:42;;;;;;;16.60;8.75;;;1.90;96.60;;;;;;5037181;28;20026;-75
2022/12/11 12:18:29;;;;;;;17.77;10.60;;;2.00;96.60;;;;;;5031668;28;20116;-74
2022/12/11 12:21:00;;;;;;;17.00;10.35;;;2.00;96.60;;;;;;5029252;28;20025;-75
2022/12/11 12:23:48;;;;;;;18.42;10.65;;;2.10;96.80;;;;;;5047144;28;20025;-74
2022/12/11 12:26:25;;;;;;;18.38;10.70;;;2.10;96.70;;;;;;5030786;28;20029;-74
2022/12/11 12:29:00;;;;;;;18.13;10.50;;;2.20;96.70;;;;;;5031100;28;20048;-74
2022/12/11 12:31:58;;;;;;;17.38;10.25;;;2.40;96.70;;;;;;5029994;28;20056;-75
2022/12/11 12:34:52;;;;;;;16.67;10.13;;;2.40;96.40;;;;;;5029984;28;20041;-74
2022/12/11 12:37:52;;;;;;;15.30;10.43;;;2.40;96.50;;;;;;5021453;28;20033;-74
2022/12/11 12:40:45;;;;;;;16.52;9.32;;;2.40;96.40;;;;;;5021714;28;20060;-74
2022/12/11 12:43:25;;;;;;;16.55;9.85;;;2.50;96.50;;;;;;5018639;28;20029;-74
2022/12/11 12:45:54;;;;;;;16.05;9.38;;;2.50;96.40;;;;;;5037318;28;20037;-74
2022/12/11 12:48:22;;;;;;;17.45;10.93;;;2.60;96.50;;;;;;5020420;28;20037;-74
2022/12/11 12:50:49;;;;;;;18.70;10.10;;;2.70;96.50;;;;;;5029323;28;20065;-74
2022/12/11 12:53:24;;;;;;;16.40;10.15;;;2.70;96.50;;;;;;5025909;28;20029;-74
2022/12/11 12:55:52;;;;;;;16.92;9.52;;;2.80;96.40;;;;;;5015766;28;20108;-73
2022/12/11 12:58:44;;;;;;;17.13;9.43;;;2.80;96.40;;;;;;5030077;28;20033;-74
2022/12/11 13:01:26;;;;;;;15.43;9.45;;;2.90;96.30;;;;;;5026640;28;20077;-75
2022/12/11 13:03:56;;;;;;;20.98;11.43;;;2.90;96.10;;;;;;5016059;28;20531;-74
2022/12/11 13:06:41;;;;;;;15.65;9.70;;;2.90;96.10;;;;;;5039998;28;20021;-75